sensor_id;sensor_type;location;lat;lon;timestamp;temperature;humidity
9861;DHT22;4969;52.304;4.968;2023-04-15T00:02:20;14.93;63.88
9861;DHT22;4969;52.304;4.968;2023-04-15T00:04:47;14.68;64.69
9861;DHT22;4969;52.304;4.968;2023-04-15T00:07:13;15.04;63.22
9861;DHT22;4969;52.304;4.968;2023-04-15T00:09:41;15.61;60.36
9861;DHT22;4969;52.304;4.968;2023-04-15T00:12:10;15.65;59.21
9861;DHT22;4969;52.304;4.968;2023-04-15T00:14:37;15.71;61.86
9861;DHT22;4969;52.304;4.968;2023-04-15T00:17:04;15.44;60.88
9861;DHT22;4969;52.304;4.968;2023-04-15T00:19:31;15.37;56.22
9861;DHT22;4969;52.304;4.968;2023-04-15T00:21:58;15.90;58.74
9861;DHT22;4969;52.304;4.968;2023-04-15T00:24:25;15.18;59.25
9861;DHT22;4969;52.304;4.968;2023-04-15T00:26:53;15.31;60.58
9861;DHT22;4969;52.304;4.968;2023-04-15T00:29:20;14.89;60.06
9861;DHT22;4969;52.304;4.968;2023-04-15T00:31:46;14.73;60.51
9861;DHT22;4969;52.304;4.968;2023-04-15T00:34:13;14.81;58.69
9861;DHT22;4969;52.304;4.968;2023-04-15T00:36:39;14.54;58.82
9861;DHT22;4969;52.304;4.968;2023-04-15T00:39:06;15.17;61.99
9861;DHT22;4969;52.304;4.968;2023-04-15T00:41:33;16.14;60.13
9861;DHT22;4969;52.304;4.968;2023-04-15T00:44:00;15.75;58.50
9861;DHT22;4969;52.304;4.968;2023-04-15T00:46:29;15.66;59.76
9861;DHT22;4969;52.304;4.968;2023-04-15T00:48:56;15.44;54.54
9861;DHT22;4969;52.304;4.968;2023-04-15T00:51:23;15.45;61.69
9861;DHT22;4969;52.304;4.968;2023-04-15T00:53:50;16.12;59.87
9861;DHT22;4969;52.304;4.968;2023-04-15T00:56:18;16.10;59.63
9861;DHT22;4969;52.304;4.968;2023-04-15T00:58:46;15.94;55.89
9861;DHT22;4969;52.304;4.968;2023-04-15T01:01:14;16.26;58.70
9861;DHT22;4969;52.304;4.968;2023-04-15T01:03:41;15.94;57.78
9861;DHT22;4969;52.304;4.968;2023-04-15T01:06:07;15.50;59.75
9861;DHT22;4969;52.304;4.968;2023-04-15T01:08:34;15.78;59.96
9861;DHT22;4969;52.304;4.968;2023-04-15T01:11:01;15.30;58.35
9861;DHT22;4969;52.304;4.968;2023-04-15T01:13:28;15.92;60.30
9861;DHT22;4969;52.304;4.968;2023-04-15T01:15:56;16.19;59.52
9861;DHT22;4969;52.304;4.968;2023-04-15T01:18:24;15.85;51.84
9861;DHT22;4969;52.304;4.968;2023-04-15T01:20:51;15.13;56.62
9861;DHT22;4969;52.304;4.968;2023-04-15T01:23:18;14.40;51.92
9861;DHT22;4969;52.304;4.968;2023-04-15T01:25:48;14.18;61.55
9861;DHT22;4969;52.304;4.968;2023-04-15T01:28:14;14.02;54.49
9861;DHT22;4969;52.304;4.968;2023-04-15T01:30:41;13.63;60.05
9861;DHT22;4969;52.304;4.968;2023-04-15T01:33:08;13.28;61.53
9861;DHT22;4969;52.304;4.968;2023-04-15T01:35:35;12.64;59.36
9861;DHT22;4969;52.304;4.968;2023-04-15T01:38:04;12.58;62.15
9861;DHT22;4969;52.304;4.968;2023-04-15T01:40:31;12.04;59.82
9861;DHT22;4969;52.304;4.968;2023-04-15T01:42:59;12.13;58.43
9861;DHT22;4969;52.304;4.968;2023-04-15T01:45:26;11.87;64.60
9861;DHT22;4969;52.304;4.968;2023-04-15T01:47:53;11.52;58.51
9861;DHT22;4969;52.304;4.968;2023-04-15T01:50:19;11.58;62.14
9861;DHT22;4969;52.304;4.968;2023-04-15T01:52:46;11.37;60.31
9861;DHT22;4969;52.304;4.968;2023-04-15T01:55:13;10.99;58.94
9861;DHT22;4969;52.304;4.968;2023-04-15T01:57:39;10.99;66.06
9861;DHT22;4969;52.304;4.968;2023-04-15T02:00:08;11.04;60.89
9861;DHT22;4969;52.304;4.968;2023-04-15T02:02:35;11.06;64.25
9861;DHT22;4969;52.304;4.968;2023-04-15T02:05:02;10.97;61.00
9861;DHT22;4969;52.304;4.968;2023-04-15T02:07:29;10.61;61.40
9861;DHT22;4969;52.304;4.968;2023-04-15T02:09:57;10.72;63.90
9861;DHT22;4969;52.304;4.968;2023-04-15T02:12:23;10.47;61.93
9861;DHT22;4969;52.304;4.968;2023-04-15T02:14:50;10.58;61.40
9861;DHT22;4969;52.304;4.968;2023-04-15T02:17:18;10.26;62.09
9861;DHT22;4969;52.304;4.968;2023-04-15T02:19:44;10.89;62.48
9861;DHT22;4969;52.304;4.968;2023-04-15T02:22:11;11.41;66.65
9861;DHT22;4969;52.304;4.968;2023-04-15T02:24:43;11.19;61.28
9861;DHT22;4969;52.304;4.968;2023-04-15T02:27:10;10.79;62.87
9861;DHT22;4969;52.304;4.968;2023-04-15T02:29:36;10.92;62.17
9861;DHT22;4969;52.304;4.968;2023-04-15T02:32:03;10.95;64.99
9861;DHT22;4969;52.304;4.968;2023-04-15T02:34:31;10.86;61.77
9861;DHT22;4969;52.304;4.968;2023-04-15T02:36:58;10.63;64.64
9861;DHT22;4969;52.304;4.968;2023-04-15T02:39:25;10.26;65.44
9861;DHT22;4969;52.304;4.968;2023-04-15T02:41:52;11.06;67.49
9861;DHT22;4969;52.304;4.968;2023-04-15T02:44:19;11.95;68.26
9861;DHT22;4969;52.304;4.968;2023-04-15T02:46:47;12.61;62.56
9861;DHT22;4969;52.304;4.968;2023-04-15T02:49:16;12.19;63.14
9861;DHT22;4969;52.304;4.968;2023-04-15T02:51:44;12.59;62.19
9861;DHT22;4969;52.304;4.968;2023-04-15T02:54:13;11.96;64.74
9861;DHT22;4969;52.304;4.968;2023-04-15T02:56:40;11.89;63.32
9861;DHT22;4969;52.304;4.968;2023-04-15T02:59:06;11.38;62.93
9861;DHT22;4969;52.304;4.968;2023-04-15T03:01:33;11.43;61.86
9861;DHT22;4969;52.304;4.968;2023-04-15T03:04:00;11.04;66.45
9861;DHT22;4969;52.304;4.968;2023-04-15T03:06:26;10.83;63.36
9861;DHT22;4969;52.304;4.968;2023-04-15T03:08:54;11.13;70.03
9861;DHT22;4969;52.304;4.968;2023-04-15T03:11:21;11.36;63.70
9861;DHT22;4969;52.304;4.968;2023-04-15T03:13:47;10.52;63.67
9861;DHT22;4969;52.304;4.968;2023-04-15T03:16:14;10.49;65.52
9861;DHT22;4969;52.304;4.968;2023-04-15T03:18:41;10.12;66.14
9861;DHT22;4969;52.304;4.968;2023-04-15T03:21:07;10.38;65.91
9861;DHT22;4969;52.304;4.968;2023-04-15T03:23:34;10.27;66.70
9861;DHT22;4969;52.304;4.968;2023-04-15T03:26:02;10.67;65.69
9861;DHT22;4969;52.304;4.968;2023-04-15T03:28:30;11.27;68.38
9861;DHT22;4969;52.304;4.968;2023-04-15T03:30:56;10.34;63.92
9861;DHT22;4969;52.304;4.968;2023-04-15T03:33:23;10.03;65.88
9861;DHT22;4969;52.304;4.968;2023-04-15T03:35:50;10.17;69.31
9861;DHT22;4969;52.304;4.968;2023-04-15T03:38:17;10.13;65.65
9861;DHT22;4969;52.304;4.968;2023-04-15T03:40:45;10.63;67.31
9861;DHT22;4969;52.304;4.968;2023-04-15T03:43:13;11.44;69.98
9861;DHT22;4969;52.304;4.968;2023-04-15T03:45:40;11.40;66.92
9861;DHT22;4969;52.304;4.968;2023-04-15T03:48:06;10.45;64.40
9861;DHT22;4969;52.304;4.968;2023-04-15T03:50:33;10.28;67.54
9861;DHT22;4969;52.304;4.968;2023-04-15T03:52:59;10.52;66.74
9861;DHT22;4969;52.304;4.968;2023-04-15T03:55:26;11.46;70.41
9861;DHT22;4969;52.304;4.968;2023-04-15T03:57:52;10.81;66.88
9861;DHT22;4969;52.304;4.968;2023-04-15T04:00:20;10.95;65.93
9861;DHT22;4969;52.304;4.968;2023-04-15T04:02:47;10.78;65.60
9861;DHT22;4969;52.304;4.968;2023-04-15T04:05:14;10.64;68.68
9861;DHT22;4969;52.304;4.968;2023-04-15T04:07:41;11.17;70.09
9861;DHT22;4969;52.304;4.968;2023-04-15T04:10:08;10.91;66.86
9861;DHT22;4969;52.304;4.968;2023-04-15T04:12:34;10.10;65.64
9861;DHT22;4969;52.304;4.968;2023-04-15T04:15:01;9.40;68.03
9861;DHT22;4969;52.304;4.968;2023-04-15T04:17:29;9.03;69.72
9861;DHT22;4969;52.304;4.968;2023-04-15T04:19:55;8.76;70.36
9861;DHT22;4969;52.304;4.968;2023-04-15T04:22:22;8.68;71.10
9861;DHT22;4969;52.304;4.968;2023-04-15T04:24:49;8.55;71.65
9861;DHT22;4969;52.304;4.968;2023-04-15T04:27:15;8.47;71.97
9861;DHT22;4969;52.304;4.968;2023-04-15T04:29:42;8.37;72.68
9861;DHT22;4969;52.304;4.968;2023-04-15T04:32:09;8.38;72.62
9861;DHT22;4969;52.304;4.968;2023-04-15T04:34:37;8.26;72.85
9861;DHT22;4969;52.304;4.968;2023-04-15T04:37:03;8.36;73.12
9861;DHT22;4969;52.304;4.968;2023-04-15T04:39:31;8.33;73.26
9861;DHT22;4969;52.304;4.968;2023-04-15T04:41:57;8.27;73.43
9861;DHT22;4969;52.304;4.968;2023-04-15T04:44:24;8.27;73.75
9861;DHT22;4969;52.304;4.968;2023-04-15T04:46:51;8.20;73.97
9861;DHT22;4969;52.304;4.968;2023-04-15T04:49:18;8.13;74.62
9861;DHT22;4969;52.304;4.968;2023-04-15T04:51:46;8.24;74.20
9861;DHT22;4969;52.304;4.968;2023-04-15T04:54:13;8.71;73.50
9861;DHT22;4969;52.304;4.968;2023-04-15T04:56:40;8.51;73.12
9861;DHT22;4969;52.304;4.968;2023-04-15T04:59:06;8.40;73.31
9861;DHT22;4969;52.304;4.968;2023-04-15T05:01:33;8.57;75.16
9861;DHT22;4969;52.304;4.968;2023-04-15T05:04:00;8.75;73.38
9861;DHT22;4969;52.304;4.968;2023-04-15T05:06:27;8.67;73.41
9861;DHT22;4969;52.304;4.968;2023-04-15T05:08:56;8.95;74.48
9861;DHT22;4969;52.304;4.968;2023-04-15T05:11:22;8.98;71.68
9861;DHT22;4969;52.304;4.968;2023-04-15T05:13:49;8.99;71.93
9861;DHT22;4969;52.304;4.968;2023-04-15T05:16:15;9.26;72.03
9861;DHT22;4969;52.304;4.968;2023-04-15T05:18:42;8.91;72.95
9861;DHT22;4969;52.304;4.968;2023-04-15T05:21:09;9.02;72.26
9861;DHT22;4969;52.304;4.968;2023-04-15T05:23:36;9.34;72.98
9861;DHT22;4969;52.304;4.968;2023-04-15T05:26:04;9.69;74.30
9861;DHT22;4969;52.304;4.968;2023-04-15T05:28:31;10.17;72.17
9861;DHT22;4969;52.304;4.968;2023-04-15T05:30:57;9.54;70.29
9861;DHT22;4969;52.304;4.968;2023-04-15T05:33:24;9.81;71.23
9861;DHT22;4969;52.304;4.968;2023-04-15T05:35:50;10.09;72.91
9861;DHT22;4969;52.304;4.968;2023-04-15T05:38:17;10.10;70.52
9861;DHT22;4969;52.304;4.968;2023-04-15T05:40:43;9.95;71.49
9861;DHT22;4969;52.304;4.968;2023-04-15T05:43:11;9.52;69.87
9861;DHT22;4969;52.304;4.968;2023-04-15T05:45:38;9.09;72.63
9861;DHT22;4969;52.304;4.968;2023-04-15T05:48:04;9.13;73.24
9861;DHT22;4969;52.304;4.968;2023-04-15T05:50:31;9.51;71.36
9861;DHT22;4969;52.304;4.968;2023-04-15T05:52:58;9.23;72.87
9861;DHT22;4969;52.304;4.968;2023-04-15T05:55:24;9.15;73.99
9861;DHT22;4969;52.304;4.968;2023-04-15T05:57:51;9.07;73.33
9861;DHT22;4969;52.304;4.968;2023-04-15T06:00:19;9.12;73.63
9861;DHT22;4969;52.304;4.968;2023-04-15T06:02:46;9.45;71.44
9861;DHT22;4969;52.304;4.968;2023-04-15T06:05:13;9.34;75.17
9861;DHT22;4969;52.304;4.968;2023-04-15T06:07:39;10.78;73.81
9861;DHT22;4969;52.304;4.968;2023-04-15T06:10:08;10.48;71.40
9861;DHT22;4969;52.304;4.968;2023-04-15T06:12:35;9.96;71.90
9861;DHT22;4969;52.304;4.968;2023-04-15T06:15:02;9.31;72.69
9861;DHT22;4969;52.304;4.968;2023-04-15T06:17:30;9.96;75.03
9861;DHT22;4969;52.304;4.968;2023-04-15T06:19:56;9.64;71.92
9861;DHT22;4969;52.304;4.968;2023-04-15T06:22:23;10.09;72.86
9861;DHT22;4969;52.304;4.968;2023-04-15T06:24:50;10.40;73.45
9861;DHT22;4969;52.304;4.968;2023-04-15T06:27:17;10.44;71.29
9861;DHT22;4969;52.304;4.968;2023-04-15T06:29:44;10.55;73.84
9861;DHT22;4969;52.304;4.968;2023-04-15T06:32:10;10.30;70.26
9861;DHT22;4969;52.304;4.968;2023-04-15T06:34:38;10.37;69.83
9861;DHT22;4969;52.304;4.968;2023-04-15T06:37:05;10.26;71.38
9861;DHT22;4969;52.304;4.968;2023-04-15T06:39:33;9.88;71.64
9861;DHT22;4969;52.304;4.968;2023-04-15T06:42:00;10.26;73.17
9861;DHT22;4969;52.304;4.968;2023-04-15T06:44:28;10.09;71.47
9861;DHT22;4969;52.304;4.968;2023-04-15T06:46:54;10.76;70.74
9861;DHT22;4969;52.304;4.968;2023-04-15T06:49:21;10.69;69.74
9861;DHT22;4969;52.304;4.968;2023-04-15T06:51:49;10.05;71.25
9861;DHT22;4969;52.304;4.968;2023-04-15T06:54:17;10.08;71.58
9861;DHT22;4969;52.304;4.968;2023-04-15T06:56:43;10.30;74.31
9861;DHT22;4969;52.304;4.968;2023-04-15T06:59:10;10.71;69.44
9861;DHT22;4969;52.304;4.968;2023-04-15T07:01:37;10.55;70.81
9861;DHT22;4969;52.304;4.968;2023-04-15T07:04:03;11.07;71.82
9861;DHT22;4969;52.304;4.968;2023-04-15T07:06:30;11.36;70.19
9861;DHT22;4969;52.304;4.968;2023-04-15T07:08:59;11.64;68.96
9861;DHT22;4969;52.304;4.968;2023-04-15T07:11:26;10.81;67.90
9861;DHT22;4969;52.304;4.968;2023-04-15T07:13:52;10.75;69.20
9861;DHT22;4969;52.304;4.968;2023-04-15T07:16:19;10.93;68.37
9861;DHT22;4969;52.304;4.968;2023-04-15T07:18:46;10.68;70.34
9861;DHT22;4969;52.304;4.968;2023-04-15T07:21:12;11.27;68.27
9861;DHT22;4969;52.304;4.968;2023-04-15T07:23:39;12.68;67.23
9861;DHT22;4969;52.304;4.968;2023-04-15T07:26:07;11.71;70.37
9861;DHT22;4969;52.304;4.968;2023-04-15T07:28:33;11.64;65.76
9861;DHT22;4969;52.304;4.968;2023-04-15T07:31:00;11.44;67.45
9861;DHT22;4969;52.304;4.968;2023-04-15T07:33:27;10.88;68.17
9861;DHT22;4969;52.304;4.968;2023-04-15T07:35:53;11.14;68.61
9861;DHT22;4969;52.304;4.968;2023-04-15T07:38:21;10.88;68.55
9861;DHT22;4969;52.304;4.968;2023-04-15T07:40:47;11.48;68.66
9861;DHT22;4969;52.304;4.968;2023-04-15T07:43:15;11.57;66.06
9861;DHT22;4969;52.304;4.968;2023-04-15T07:45:42;12.00;70.29
9861;DHT22;4969;52.304;4.968;2023-04-15T07:48:08;11.81;63.91
9861;DHT22;4969;52.304;4.968;2023-04-15T07:50:35;12.41;68.21
9861;DHT22;4969;52.304;4.968;2023-04-15T07:53:02;12.59;61.10
9861;DHT22;4969;52.304;4.968;2023-04-15T07:55:29;12.58;62.84
9861;DHT22;4969;52.304;4.968;2023-04-15T07:57:56;12.24;63.92
9861;DHT22;4969;52.304;4.968;2023-04-15T08:00:24;12.19;64.20
9861;DHT22;4969;52.304;4.968;2023-04-15T08:02:51;11.14;67.84
9861;DHT22;4969;52.304;4.968;2023-04-15T08:05:18;11.47;64.53
9861;DHT22;4969;52.304;4.968;2023-04-15T08:07:44;11.03;68.83
9861;DHT22;4969;52.304;4.968;2023-04-15T08:10:11;10.83;69.08
9861;DHT22;4969;52.304;4.968;2023-04-15T08:12:38;11.51;67.07
9861;DHT22;4969;52.304;4.968;2023-04-15T08:15:05;11.10;69.84
9861;DHT22;4969;52.304;4.968;2023-04-15T08:17:34;10.88;69.32
9861;DHT22;4969;52.304;4.968;2023-04-15T08:20:00;11.43;71.15
9861;DHT22;4969;52.304;4.968;2023-04-15T08:22:27;11.34;67.22
9861;DHT22;4969;52.304;4.968;2023-04-15T08:24:54;11.10;70.13
9861;DHT22;4969;52.304;4.968;2023-04-15T08:27:20;10.75;68.40
9861;DHT22;4969;52.304;4.968;2023-04-15T08:29:47;10.60;69.51
9861;DHT22;4969;52.304;4.968;2023-04-15T08:32:13;10.61;69.89
9861;DHT22;4969;52.304;4.968;2023-04-15T08:34:42;11.14;71.79
9861;DHT22;4969;52.304;4.968;2023-04-15T08:37:09;11.26;67.10
9861;DHT22;4969;52.304;4.968;2023-04-15T08:39:35;11.75;70.59
9861;DHT22;4969;52.304;4.968;2023-04-15T08:42:03;11.32;67.61
9861;DHT22;4969;52.304;4.968;2023-04-15T08:44:33;10.69;68.91
9861;DHT22;4969;52.304;4.968;2023-04-15T08:47:01;10.67;72.28
9861;DHT22;4969;52.304;4.968;2023-04-15T08:49:31;11.17;70.44
9861;DHT22;4969;52.304;4.968;2023-04-15T08:51:59;10.75;70.81
9861;DHT22;4969;52.304;4.968;2023-04-15T08:54:26;10.51;71.05
9861;DHT22;4969;52.304;4.968;2023-04-15T08:56:53;10.55;70.82
9861;DHT22;4969;52.304;4.968;2023-04-15T08:59:20;10.64;72.26
9861;DHT22;4969;52.304;4.968;2023-04-15T09:01:47;10.71;69.75
9861;DHT22;4969;52.304;4.968;2023-04-15T09:04:15;11.61;68.80
9861;DHT22;4969;52.304;4.968;2023-04-15T09:06:42;11.36;72.45
9861;DHT22;4969;52.304;4.968;2023-04-15T09:09:11;11.69;67.22
9861;DHT22;4969;52.304;4.968;2023-04-15T09:11:38;11.57;67.52
9861;DHT22;4969;52.304;4.968;2023-04-15T09:14:05;10.76;70.01
9861;DHT22;4969;52.304;4.968;2023-04-15T09:16:54;10.64;70.71
9861;DHT22;4969;52.304;4.968;2023-04-15T09:19:22;11.04;70.61
9861;DHT22;4969;52.304;4.968;2023-04-15T09:21:50;11.24;70.13
9861;DHT22;4969;52.304;4.968;2023-04-15T09:24:17;11.31;70.51
9861;DHT22;4969;52.304;4.968;2023-04-15T09:26:44;11.68;69.83
9861;DHT22;4969;52.304;4.968;2023-04-15T09:29:11;12.26;72.87
9861;DHT22;4969;52.304;4.968;2023-04-15T09:31:39;13.06;63.68
9861;DHT22;4969;52.304;4.968;2023-04-15T09:34:06;12.37;65.94
9861;DHT22;4969;52.304;4.968;2023-04-15T09:36:51;12.57;65.59
9861;DHT22;4969;52.304;4.968;2023-04-15T09:39:19;12.45;64.55
9861;DHT22;4969;52.304;4.968;2023-04-15T09:41:45;12.57;67.72
9861;DHT22;4969;52.304;4.968;2023-04-15T09:44:21;12.96;68.48
9861;DHT22;4969;52.304;4.968;2023-04-15T09:46:48;12.47;65.61
9861;DHT22;4969;52.304;4.968;2023-04-15T09:49:15;12.58;65.10
9861;DHT22;4969;52.304;4.968;2023-04-15T09:51:42;12.86;64.47
9861;DHT22;4969;52.304;4.968;2023-04-15T09:54:09;12.64;65.22
9861;DHT22;4969;52.304;4.968;2023-04-15T09:56:38;11.54;66.98
9861;DHT22;4969;52.304;4.968;2023-04-15T09:59:07;11.09;69.04
9861;DHT22;4969;52.304;4.968;2023-04-15T10:01:33;10.92;68.68
9861;DHT22;4969;52.304;4.968;2023-04-15T10:04:02;11.21;71.74
9861;DHT22;4969;52.304;4.968;2023-04-15T10:06:29;11.64;65.46
9861;DHT22;4969;52.304;4.968;2023-04-15T10:08:56;11.86;68.30
9861;DHT22;4969;52.304;4.968;2023-04-15T10:11:23;11.78;66.01
9861;DHT22;4969;52.304;4.968;2023-04-15T10:13:51;11.89;67.23
9861;DHT22;4969;52.304;4.968;2023-04-15T10:16:19;11.58;66.61
9861;DHT22;4969;52.304;4.968;2023-04-15T10:18:52;11.38;66.87
9861;DHT22;4969;52.304;4.968;2023-04-15T10:21:20;11.51;70.08
9861;DHT22;4969;52.304;4.968;2023-04-15T10:23:48;11.65;66.21
9861;DHT22;4969;52.304;4.968;2023-04-15T10:26:15;12.13;68.83
9861;DHT22;4969;52.304;4.968;2023-04-15T10:28:42;12.55;63.98
9861;DHT22;4969;52.304;4.968;2023-04-15T10:31:11;11.47;65.02
9861;DHT22;4969;52.304;4.968;2023-04-15T10:33:39;11.31;66.92
9861;DHT22;4969;52.304;4.968;2023-04-15T10:36:07;11.32;67.40
9861;DHT22;4969;52.304;4.968;2023-04-15T10:38:35;11.85;66.71
9861;DHT22;4969;52.304;4.968;2023-04-15T10:41:15;12.47;65.00
9861;DHT22;4969;52.304;4.968;2023-04-15T10:43:51;12.51;63.51
9861;DHT22;4969;52.304;4.968;2023-04-15T10:46:21;12.10;64.48
9861;DHT22;4969;52.304;4.968;2023-04-15T10:48:48;11.90;67.53
9861;DHT22;4969;52.304;4.968;2023-04-15T10:51:15;12.80;63.46
9861;DHT22;4969;52.304;4.968;2023-04-15T10:53:43;13.16;63.57
9861;DHT22;4969;52.304;4.968;2023-04-15T10:56:09;12.78;62.60
9861;DHT22;4969;52.304;4.968;2023-04-15T10:58:42;12.19;64.44
9861;DHT22;4969;52.304;4.968;2023-04-15T11:01:09;12.55;66.62
9861;DHT22;4969;52.304;4.968;2023-04-15T11:03:39;13.35;66.19
9861;DHT22;4969;52.304;4.968;2023-04-15T11:06:06;12.55;64.61
9861;DHT22;4969;52.304;4.968;2023-04-15T11:08:52;12.33;65.04
9861;DHT22;4969;52.304;4.968;2023-04-15T11:11:19;12.44;64.25
9861;DHT22;4969;52.304;4.968;2023-04-15T11:13:47;12.26;64.04
9861;DHT22;4969;52.304;4.968;2023-04-15T11:16:14;12.10;63.98
9861;DHT22;4969;52.304;4.968;2023-04-15T11:18:52;11.95;65.66
9861;DHT22;4969;52.304;4.968;2023-04-15T11:21:23;13.02;66.78
9861;DHT22;4969;52.304;4.968;2023-04-15T11:23:51;12.26;64.43
9861;DHT22;4969;52.304;4.968;2023-04-15T11:26:17;12.10;65.53
9861;DHT22;4969;52.304;4.968;2023-04-15T11:28:44;11.90;64.74
9861;DHT22;4969;52.304;4.968;2023-04-15T11:31:12;11.76;66.94
9861;DHT22;4969;52.304;4.968;2023-04-15T11:33:53;12.19;64.68
9861;DHT22;4969;52.304;4.968;2023-04-15T11:36:23;11.62;66.00
9861;DHT22;4969;52.304;4.968;2023-04-15T11:38:50;11.79;65.83
9861;DHT22;4969;52.304;4.968;2023-04-15T11:41:19;12.29;66.01
9861;DHT22;4969;52.304;4.968;2023-04-15T11:43:46;12.50;64.47
9861;DHT22;4969;52.304;4.968;2023-04-15T11:46:13;12.33;63.80
9861;DHT22;4969;52.304;4.968;2023-04-15T11:48:42;12.14;64.48
9861;DHT22;4969;52.304;4.968;2023-04-15T11:51:11;12.20;62.79
9861;DHT22;4969;52.304;4.968;2023-04-15T11:53:40;12.30;63.06
9861;DHT22;4969;52.304;4.968;2023-04-15T11:56:07;12.16;63.55
9861;DHT22;4969;52.304;4.968;2023-04-15T11:58:35;12.13;64.38
9861;DHT22;4969;52.304;4.968;2023-04-15T12:01:04;12.27;64.68
9861;DHT22;4969;52.304;4.968;2023-04-15T12:03:36;12.14;62.46
9861;DHT22;4969;52.304;4.968;2023-04-15T12:06:05;11.90;61.98
9861;DHT22;4969;52.304;4.968;2023-04-15T12:08:58;12.29;62.07
9861;DHT22;4969;52.304;4.968;2023-04-15T12:11:37;12.34;62.39
9861;DHT22;4969;52.304;4.968;2023-04-15T12:14:09;12.47;62.53
9861;DHT22;4969;52.304;4.968;2023-04-15T12:16:39;12.09;63.74
9861;DHT22;4969;52.304;4.968;2023-04-15T12:19:08;12.04;63.50
9861;DHT22;4969;52.304;4.968;2023-04-15T12:21:36;12.48;61.23
9861;DHT22;4969;52.304;4.968;2023-04-15T12:24:06;12.51;60.99
9861;DHT22;4969;52.304;4.968;2023-04-15T12:26:36;12.42;62.54
9861;DHT22;4969;52.304;4.968;2023-04-15T12:29:04;12.47;61.25
9861;DHT22;4969;52.304;4.968;2023-04-15T12:31:32;12.04;61.61
9861;DHT22;4969;52.304;4.968;2023-04-15T12:33:59;12.30;61.92
9861;DHT22;4969;52.304;4.968;2023-04-15T12:36:27;12.14;62.43
9861;DHT22;4969;52.304;4.968;2023-04-15T12:38:54;12.21;62.62
9861;DHT22;4969;52.304;4.968;2023-04-15T12:41:22;12.20;61.03
9861;DHT22;4969;52.304;4.968;2023-04-15T12:43:49;12.14;61.95
9861;DHT22;4969;52.304;4.968;2023-04-15T12:46:16;12.50;61.64
9861;DHT22;4969;52.304;4.968;2023-04-15T12:48:43;12.42;62.29
9861;DHT22;4969;52.304;4.968;2023-04-15T12:51:09;12.50;62.03
9861;DHT22;4969;52.304;4.968;2023-04-15T12:53:36;12.36;62.93
9861;DHT22;4969;52.304;4.968;2023-04-15T12:56:03;12.76;65.31
9861;DHT22;4969;52.304;4.968;2023-04-15T12:58:32;12.82;61.34
9861;DHT22;4969;52.304;4.968;2023-04-15T13:00:58;12.76;61.45
9861;DHT22;4969;52.304;4.968;2023-04-15T13:03:25;12.82;65.31
9861;DHT22;4969;52.304;4.968;2023-04-15T13:05:52;12.64;62.97
9861;DHT22;4969;52.304;4.968;2023-04-15T13:08:18;12.45;61.38
9861;DHT22;4969;52.304;4.968;2023-04-15T13:10:45;12.58;61.23
9861;DHT22;4969;52.304;4.968;2023-04-15T13:13:12;12.52;61.48
9861;DHT22;4969;52.304;4.968;2023-04-15T13:15:40;12.55;62.97
9861;DHT22;4969;52.304;4.968;2023-04-15T13:18:10;12.73;62.44
9861;DHT22;4969;52.304;4.968;2023-04-15T13:20:37;13.07;63.01
9861;DHT22;4969;52.304;4.968;2023-04-15T13:23:03;12.52;62.21
9861;DHT22;4969;52.304;4.968;2023-04-15T13:25:30;12.38;63.28
9861;DHT22;4969;52.304;4.968;2023-04-15T13:27:57;12.10;65.91
9861;DHT22;4969;52.304;4.968;2023-04-15T13:30:23;12.00;64.38
9861;DHT22;4969;52.304;4.968;2023-04-15T13:32:51;12.36;64.06
9861;DHT22;4969;52.304;4.968;2023-04-15T13:35:18;12.51;62.71
9861;DHT22;4969;52.304;4.968;2023-04-15T13:37:45;12.64;62.25
9861;DHT22;4969;52.304;4.968;2023-04-15T13:40:12;12.41;63.41
9861;DHT22;4969;52.304;4.968;2023-04-15T13:42:39;12.27;64.66
9861;DHT22;4969;52.304;4.968;2023-04-15T13:45:06;12.21;64.23
9861;DHT22;4969;52.304;4.968;2023-04-15T13:47:33;12.26;64.42
9861;DHT22;4969;52.304;4.968;2023-04-15T13:50:01;11.89;65.84
9861;DHT22;4969;52.304;4.968;2023-04-15T13:52:28;11.85;65.83
9861;DHT22;4969;52.304;4.968;2023-04-15T13:54:54;11.87;64.96
9861;DHT22;4969;52.304;4.968;2023-04-15T13:57:21;11.72;65.69
9861;DHT22;4969;52.304;4.968;2023-04-15T13:59:47;12.02;65.83
9861;DHT22;4969;52.304;4.968;2023-04-15T14:02:14;11.58;66.04
9861;DHT22;4969;52.304;4.968;2023-04-15T14:04:41;12.03;65.36
9861;DHT22;4969;52.304;4.968;2023-04-15T14:07:08;11.62;65.23
9861;DHT22;4969;52.304;4.968;2023-04-15T14:09:35;11.54;65.09
9861;DHT22;4969;52.304;4.968;2023-04-15T14:12:02;11.82;62.98
9861;DHT22;4969;52.304;4.968;2023-04-15T14:14:29;11.43;64.11
9861;DHT22;4969;52.304;4.968;2023-04-15T14:16:55;11.92;64.47
9861;DHT22;4969;52.304;4.968;2023-04-15T14:19:23;11.93;64.78
9861;DHT22;4969;52.304;4.968;2023-04-15T14:21:49;11.92;65.57
9861;DHT22;4969;52.304;4.968;2023-04-15T14:24:17;12.00;65.64
9861;DHT22;4969;52.304;4.968;2023-04-15T14:26:44;11.55;67.05
9861;DHT22;4969;52.304;4.968;2023-04-15T14:29:10;11.37;67.35
9861;DHT22;4969;52.304;4.968;2023-04-15T14:31:37;11.62;65.89
9861;DHT22;4969;52.304;4.968;2023-04-15T14:34:04;11.69;65.83
9861;DHT22;4969;52.304;4.968;2023-04-15T14:36:30;11.69;65.88
9861;DHT22;4969;52.304;4.968;2023-04-15T14:38:57;12.04;65.59
9861;DHT22;4969;52.304;4.968;2023-04-15T14:41:25;11.89;64.62
9861;DHT22;4969;52.304;4.968;2023-04-15T14:43:52;11.12;64.89
9861;DHT22;4969;52.304;4.968;2023-04-15T14:46:18;11.14;64.64
9861;DHT22;4969;52.304;4.968;2023-04-15T14:48:45;11.36;64.66
9861;DHT22;4969;52.304;4.968;2023-04-15T14:51:12;11.26;64.60
9861;DHT22;4969;52.304;4.968;2023-04-15T14:53:38;11.20;65.69
9861;DHT22;4969;52.304;4.968;2023-04-15T14:56:05;11.47;65.26
9861;DHT22;4969;52.304;4.968;2023-04-15T14:58:33;11.27;65.40
9861;DHT22;4969;52.304;4.968;2023-04-15T15:01:00;11.43;64.94
9861;DHT22;4969;52.304;4.968;2023-04-15T15:03:27;11.38;64.22
9861;DHT22;4969;52.304;4.968;2023-04-15T15:05:54;11.41;64.98
9861;DHT22;4969;52.304;4.968;2023-04-15T15:08:21;11.31;64.87
9861;DHT22;4969;52.304;4.968;2023-04-15T15:10:48;11.20;65.01
9861;DHT22;4969;52.304;4.968;2023-04-15T15:13:15;11.14;66.08
9861;DHT22;4969;52.304;4.968;2023-04-15T15:15:44;11.02;66.45
9861;DHT22;4969;52.304;4.968;2023-04-15T15:18:10;11.26;67.51
9861;DHT22;4969;52.304;4.968;2023-04-15T15:20:37;10.96;67.25
9861;DHT22;4969;52.304;4.968;2023-04-15T15:23:04;11.09;67.76
9861;DHT22;4969;52.304;4.968;2023-04-15T15:25:30;11.17;67.55
9861;DHT22;4969;52.304;4.968;2023-04-15T15:27:57;11.16;67.63
9861;DHT22;4969;52.304;4.968;2023-04-15T15:30:23;11.09;66.58
9861;DHT22;4969;52.304;4.968;2023-04-15T15:32:51;10.92;66.37
9861;DHT22;4969;52.304;4.968;2023-04-15T15:35:18;10.78;67.04
9861;DHT22;4969;52.304;4.968;2023-04-15T15:37:46;10.65;67.32
9861;DHT22;4969;52.304;4.968;2023-04-15T15:40:13;10.79;67.29
9861;DHT22;4969;52.304;4.968;2023-04-15T15:42:39;10.57;66.92
9861;DHT22;4969;52.304;4.968;2023-04-15T15:45:07;10.44;67.32
9861;DHT22;4969;52.304;4.968;2023-04-15T15:47:34;10.47;67.42
9861;DHT22;4969;52.304;4.968;2023-04-15T15:50:02;10.44;67.47
9861;DHT22;4969;52.304;4.968;2023-04-15T15:52:28;10.42;68.24
9861;DHT22;4969;52.304;4.968;2023-04-15T15:54:55;10.64;69.07
9861;DHT22;4969;52.304;4.968;2023-04-15T15:57:22;10.44;68.89
9861;DHT22;4969;52.304;4.968;2023-04-15T15:59:48;10.51;68.65
9861;DHT22;4969;52.304;4.968;2023-04-15T16:02:15;10.38;69.05
9861;DHT22;4969;52.304;4.968;2023-04-15T16:04:41;10.38;69.52
9861;DHT22;4969;52.304;4.968;2023-04-15T16:07:09;10.47;69.52